Time;durP1;ratioP1;P1;durP2;ratioP2;P2;SDS_P1;SDS_P2;PMS_P1;PMS_P2;Temp;Humidity;BMP_temperature;BMP_pressure;BME280_temperature;BME280_humidity;BME280_pressure;Samples;Min_cycle;Max_cycle;Signal;HPM_P1;HPM_P2
2022/06/19 00:00:22;;;;;;;;;;;;;;;19.32;66.08;101107.78;4962043;28;1177;-61
2022/06/19 00:02:47;;;;;;;;;;;;;;;17.01;64.69;101097.69;4958019;29;1197;-61
2022/06/19 00:05:14;;;;;;;;;;;;;;;17.60;71.71;101110.22;4938413;28;1086;-61
2022/06/19 00:07:40;;;;;;;;;;;;;;;19.27;64.73;101102.28;4960622;28;1039;-62
2022/06/19 00:10:06;;;;;;;;;;;;;;;16.81;69.89;101106.63;4940320;29;1070;-61
2022/06/19 00:12:31;;;;;;;;;;;;;;;18.31;70.06;101110.53;4959252;28;1133;-62
2022/06/19 00:14:57;;;;;;;;;;;;;;;18.01;65.10;101105.91;4957381;28;1090;-61
2022/06/19 00:17:22;;;;;;;;;;;;;;;16.97;71.49;101102.06;4963973;28;1902;-61
2022/06/19 00:19:48;;;;;;;;;;;;;;;17.87;65.52;101100.91;4957995;29;2576;-61
2022/06/19 00:22:13;;;;;;;;;;;;;;;18.23;61.93;101097.34;4959273;28;1023;-62
2022/06/19 00:24:39;;;;;;;;;;;;;;;18.32;60.05;101095.69;4959991;28;1081;-61
2022/06/19 00:27:04;;;;;;;;;;;;;;;18.33;59.44;101088.22;4958006;28;1138;-61
2022/06/19 00:29:30;;;;;;;;;;;;;;;18.29;58.73;101097.06;4959967;28;1090;-61
2022/06/19 00:31:55;;;;;;;;;;;;;;;18.23;58.03;101087.16;4957576;28;1077;-61
2022/06/19 00:34:21;;;;;;;;;;;;;;;18.19;57.87;101091.56;4958546;28;1630;-62
2022/06/19 00:36:49;;;;;;;;;;;;;;;18.12;57.44;101080.84;4956773;28;955;-61
2022/06/19 00:39:16;;;;;;;;;;;;;;;18.10;57.27;101088.56;4957901;28;1914;-62
2022/06/19 00:41:41;;;;;;;;;;;;;;;18.33;59.40;101091.84;4957347;28;927;-61
2022/06/19 00:44:07;;;;;;;;;;;;;;;19.17;62.43;101095.97;4952940;28;1591;-61
2022/06/19 00:46:45;;;;;;;;;;;;;;;17.26;64.87;101085.97;4958468;28;995;-61
2022/06/19 00:49:29;;;;;;;;;;;;;;;18.44;69.53;101092.66;4954376;28;2628;-62
2022/06/19 00:51:57;;;;;;;;;;;;;;;18.15;64.35;101095.16;4955952;28;1154;-61
2022/06/19 00:54:22;;;;;;;;;;;;;;;17.27;72.58;101093.09;4957292;28;916;-60
2022/06/19 00:56:48;;;;;;;;;;;;;;;19.26;66.36;101105.31;4941214;29;1077;-61
2022/06/19 00:59:13;;;;;;;;;;;;;;;16.85;65.51;101095.94;4946979;29;1980;-61
2022/06/19 01:01:39;;;;;;;;;;;;;;;17.41;69.23;101093.41;4961838;28;987;-61
2022/06/19 01:04:22;;;;;;;;;;;;;;;18.15;63.21;101089.66;4962079;28;1042;-61
2022/06/19 01:06:48;;;;;;;;;;;;;;;18.33;60.70;101094.59;4961203;28;1418;-61
2022/06/19 01:09:14;;;;;;;;;;;;;;;18.35;59.36;101095.13;4961235;29;1007;-62
2022/06/19 01:11:40;;;;;;;;;;;;;;;18.33;58.81;101091.00;4955342;29;1185;-61
2022/06/19 01:14:06;;;;;;;;;;;;;;;18.29;58.10;101083.28;4943965;29;1516;-61
2022/06/19 01:16:31;;;;;;;;;;;;;;;18.22;57.59;101081.94;4959336;28;1737;-62
2022/06/19 01:18:58;;;;;;;;;;;;;;;18.16;57.50;101086.63;4946521;28;2477;-61
2022/06/19 01:21:43;;;;;;;;;;;;;;;18.09;57.31;101081.41;4961976;28;854;-62
2022/06/19 01:24:21;;;;;;;;;;;;;;;18.90;61.79;101077.91;4946458;28;1133;-60
2022/06/19 01:26:47;;;;;;;;;;;;;;;17.63;64.19;101084.13;4943844;29;975;-61
2022/06/19 01:29:13;;;;;;;;;;;;;;;18.09;70.47;101086.91;4943361;29;1495;-61
2022/06/19 01:31:46;;;;;;;;;;;;;;;19.72;64.28;101082.16;4943164;29;1141;-61
2022/06/19 01:34:27;;;;;;;;;;;;;;;16.74;69.25;101090.38;4960990;29;1149;-61
2022/06/19 01:37:13;;;;;;;;;;;;;;;17.66;66.32;101080.00;4946114;29;909;-61
2022/06/19 01:39:40;;;;;;;;;;;;;;;18.20;61.26;101076.72;4960188;29;1216;-62
2022/06/19 01:42:05;;;;;;;;;;;;;;;18.29;59.63;101090.72;4948474;29;1051;-61
2022/06/19 01:44:31;;;;;;;;;;;;;;;18.30;58.58;101084.13;4964857;28;1209;-61
2022/06/19 01:46:56;;;;;;;;;;;;;;;18.22;58.17;101087.44;4943424;29;1003;-62
2022/06/19 01:49:22;;;;;;;;;;;;;;;18.19;57.82;101082.47;4958573;28;2439;-61
2022/06/19 01:51:47;;;;;;;;;;;;;;;18.13;57.21;101087.16;4959139;28;992;-61
2022/06/19 01:54:14;;;;;;;;;;;;;;;18.51;60.50;101076.66;4960860;28;1392;-61
2022/06/19 01:56:40;;;;;;;;;;;;;;;19.27;62.28;101082.97;4942329;29;1621;-61
2022/06/19 01:59:06;;;;;;;;;;;;;;;17.02;67.82;101079.28;4963350;28;1961;-60
2022/06/19 02:01:32;;;;;;;;;;;;;;;18.82;67.95;101076.56;4960631;28;1061;-61
2022/06/19 02:03:59;;;;;;;;;;;;;;;17.75;64.38;101087.44;4959347;28;987;-61
2022/06/19 02:06:26;;;;;;;;;;;;;;;17.48;72.24;101092.34;4942860;29;1589;-61
2022/06/19 02:08:51;;;;;;;;;;;;;;;19.46;65.42;101083.16;4960497;28;1161;-61
2022/06/19 02:11:17;;;;;;;;;;;;;;;16.64;68.14;101084.84;4965764;28;846;-62
2022/06/19 02:13:43;;;;;;;;;;;;;;;18.20;70.21;101093.22;4941941;29;1596;-61
2022/06/19 02:16:15;;;;;;;;;;;;;;;18.27;64.46;101103.94;4942127;29;1566;-61
2022/06/19 02:18:42;;;;;;;;;;;;;;;17.10;72.39;101092.50;4958066;28;2569;-61
2022/06/19 02:21:10;;;;;;;;;;;;;;;19.21;66.31;101095.16;4959104;28;1011;-61
2022/06/19 02:23:36;;;;;;;;;;;;;;;16.71;65.20;101093.66;4942741;29;877;-61
2022/06/19 02:26:03;;;;;;;;;;;;;;;17.65;71.44;101101.16;4959913;28;1197;-62
2022/06/19 02:28:28;;;;;;;;;;;;;;;19.22;64.31;101102.28;4959861;29;1207;-61
2022/06/19 02:30:54;;;;;;;;;;;;;;;16.66;70.18;101101.91;4959951;28;1146;-61
2022/06/19 02:33:21;;;;;;;;;;;;;;;17.52;67.49;101101.69;4960093;28;979;-60
2022/06/19 02:35:46;;;;;;;;;;;;;;;18.15;62.50;101114.44;4940863;29;1000;-61
2022/06/19 02:38:13;;;;;;;;;;;;;;;18.28;60.53;101108.34;4960441;29;1906;-62
2022/06/19 02:40:40;;;;;;;;;;;;;;;18.33;59.24;101113.84;4943002;29;1003;-62
2022/06/19 02:43:17;;;;;;;;;;;;;;;18.28;58.85;101111.09;4938759;29;987;-61
2022/06/19 02:45:42;;;;;;;;;;;;;;;18.23;58.28;101109.19;4959698;29;1012;-61
2022/06/19 02:48:13;;;;;;;;;;;;;;;18.20;58.00;101117.16;4959560;28;1113;-61
2022/06/19 02:50:42;;;;;;;;;;;;;;;18.16;57.34;101113.31;4939696;29;2768;-61
2022/06/19 02:53:07;;;;;;;;;;;;;;;18.13;57.35;101118.28;4959785;28;1117;-61
2022/06/19 02:55:33;;;;;;;;;;;;;;;18.09;57.17;101124.59;4959773;28;983;-61
2022/06/19 02:57:58;;;;;;;;;;;;;;;18.68;60.89;101125.91;4959807;28;1907;-62
2022/06/19 03:00:24;;;;;;;;;;;;;;;18.69;63.10;101121.22;4960720;28;1126;-62
2022/06/19 03:02:50;;;;;;;;;;;;;;;17.47;69.89;101120.91;4959880;28;1011;-61
2022/06/19 03:05:20;;;;;;;;;;;;;;;19.21;66.18;101114.44;4959221;28;955;-61
2022/06/19 03:07:45;;;;;;;;;;;;;;;17.06;64.49;101119.69;4959440;28;1031;-61
2022/06/19 03:10:10;;;;;;;;;;;;;;;17.78;71.82;101130.88;4959213;28;975;-61
2022/06/19 03:12:36;;;;;;;;;;;;;;;19.27;64.45;101126.28;4962410;28;1030;-61
2022/06/19 03:15:02;;;;;;;;;;;;;;;16.60;70.50;101133.97;4959098;28;1015;-61
2022/06/19 03:17:27;;;;;;;;;;;;;;;18.52;69.13;101130.59;4961231;28;1967;-60
2022/06/19 03:19:53;;;;;;;;;;;;;;;17.82;64.97;101122.09;4956253;28;1935;-59
2022/06/19 03:22:18;;;;;;;;;;;;;;;17.04;71.38;101127.38;4958060;28;1034;-59
2022/06/19 03:24:44;;;;;;;;;;;;;;;17.92;64.98;101124.84;4962367;28;1114;-59
2022/06/19 03:27:09;;;;;;;;;;;;;;;18.27;61.77;101126.81;4958617;29;948;-60
2022/06/19 03:29:35;;;;;;;;;;;;;;;18.35;60.19;101119.09;4947710;28;1217;-59
2022/06/19 03:32:00;;;;;;;;;;;;;;;18.36;59.16;101123.50;4974858;28;1232;-59
2022/06/19 03:34:26;;;;;;;;;;;;;;;18.34;58.53;101121.03;4974273;28;1204;-59
2022/06/19 03:36:51;;;;;;;;;;;;;;;18.28;58.21;101122.09;4970374;28;1319;-59
2022/06/19 03:39:17;;;;;;;;;;;;;;;18.26;57.84;101124.34;4958258;28;1906;-60
2022/06/19 03:41:42;;;;;;;;;;;;;;;18.20;57.52;101130.91;4958916;28;1074;-60
2022/06/19 03:44:08;;;;;;;;;;;;;;;18.19;57.20;101132.00;4958749;29;904;-60
2022/06/19 03:46:34;;;;;;;;;;;;;;;18.13;57.08;101123.78;4960501;28;1073;-60
2022/06/19 03:48:59;;;;;;;;;;;;;;;18.83;61.52;101126.97;4957769;29;2456;-60
2022/06/19 03:51:25;;;;;;;;;;;;;;;18.27;63.17;101128.72;4951901;29;1064;-60
2022/06/19 03:53:51;;;;;;;;;;;;;;;17.58;70.36;101128.91;4958244;29;944;-60
2022/06/19 03:56:17;;;;;;;;;;;;;;;19.38;65.77;101127.06;4954449;28;1298;-59
2022/06/19 03:58:45;;;;;;;;;;;;;;;16.73;65.02;101126.34;4957683;28;1906;-57
2022/06/19 04:01:21;;;;;;;;;;;;;;;18.17;70.59;101134.22;4954068;28;1353;-58
2022/06/19 04:03:47;;;;;;;;;;;;;;;18.33;64.39;101127.63;4955602;28;1385;-58
2022/06/19 04:06:13;;;;;;;;;;;;;;;16.90;71.33;101126.19;4962495;28;1196;-57
2022/06/19 04:08:39;;;;;;;;;;;;;;;17.82;65.47;101133.09;4960483;28;1374;-58
2022/06/19 04:11:05;;;;;;;;;;;;;;;18.24;61.73;101129.28;4958428;29;1054;-58
2022/06/19 04:13:31;;;;;;;;;;;;;;;18.33;60.21;101130.38;4961624;28;1011;-58
2022/06/19 04:15:57;;;;;;;;;;;;;;;18.33;59.29;101130.38;4960834;28;1082;-59
2022/06/19 04:18:22;;;;;;;;;;;;;;;18.33;58.71;101124.88;4955192;28;2077;-57
2022/06/19 04:20:48;;;;;;;;;;;;;;;18.30;58.33;101125.44;4956864;28;1039;-57
2022/06/19 04:23:13;;;;;;;;;;;;;;;18.22;58.02;101125.97;4958321;28;1165;-58
2022/06/19 04:25:43;;;;;;;;;;;;;;;18.23;57.38;101133.13;4964566;28;959;-59
2022/06/19 04:28:09;;;;;;;;;;;;;;;18.16;57.48;101138.06;4958215;29;1034;-59
2022/06/19 04:30:35;;;;;;;;;;;;;;;18.12;57.07;101135.88;4957884;29;849;-59
2022/06/19 04:33:01;;;;;;;;;;;;;;;18.60;60.58;101137.50;4956407;28;1021;-59
2022/06/19 04:35:26;;;;;;;;;;;;;;;19.03;62.05;101137.94;4957746;29;1010;-59
2022/06/19 04:37:52;;;;;;;;;;;;;;;17.12;68.49;101142.50;4957705;29;1910;-59
2022/06/19 04:40:18;;;;;;;;;;;;;;;18.92;67.37;101136.34;4958986;28;1335;-59
2022/06/19 04:42:43;;;;;;;;;;;;;;;17.69;64.65;101148.19;4942157;29;1151;-60
2022/06/19 04:45:09;;;;;;;;;;;;;;;17.15;70.71;101141.16;4958665;28;1212;-59
2022/06/19 04:47:34;;;;;;;;;;;;;;;18.04;64.06;101143.88;4958405;29;1003;-59
2022/06/19 04:50:00;;;;;;;;;;;;;;;18.33;61.40;101140.53;4964071;28;2071;-59
2022/06/19 04:52:25;;;;;;;;;;;;;;;18.37;59.99;101136.13;4957505;28;1282;-60
2022/06/19 04:54:51;;;;;;;;;;;;;;;18.35;59.15;101133.66;4962581;28;983;-60
2022/06/19 04:57:16;;;;;;;;;;;;;;;18.34;58.45;101132.03;4957671;29;1906;-60
2022/06/19 04:59:43;;;;;;;;;;;;;;;18.28;58.37;101133.13;4952081;29;991;-60
2022/06/19 05:02:11;;;;;;;;;;;;;;;18.25;57.88;101129.00;4963428;28;1129;-59
2022/06/19 05:04:36;;;;;;;;;;;;;;;18.23;57.55;101136.72;4958027;29;995;-59
2022/06/19 05:07:02;;;;;;;;;;;;;;;18.18;57.46;101138.63;4957735;28;1010;-61
2022/06/19 05:09:28;;;;;;;;;;;;;;;18.11;57.24;101139.72;4960526;28;896;-58
2022/06/19 05:11:53;;;;;;;;;;;;;;;18.22;58.76;101137.00;4958141;28;1188;-59
2022/06/19 05:14:19;;;;;;;;;;;;;;;19.09;61.70;101142.31;4955751;28;1379;-59
2022/06/19 05:16:44;;;;;;;;;;;;;;;17.40;64.50;101133.00;4956986;28;1414;-59
2022/06/19 05:19:10;;;;;;;;;;;;;;;18.20;69.88;101141.94;4956946;28;2065;-57
2022/06/19 05:21:36;;;;;;;;;;;;;;;19.38;63.46;101149.94;4955174;29;930;-59
2022/06/19 05:24:01;;;;;;;;;;;;;;;16.85;70.42;101145.38;4963195;28;1210;-59
2022/06/19 05:26:28;;;;;;;;;;;;;;;18.78;67.84;101142.41;4962563;28;975;-59
2022/06/19 05:28:53;;;;;;;;;;;;;;;17.65;64.85;101130.59;4957229;29;975;-59
2022/06/19 05:31:19;;;;;;;;;;;;;;;17.20;70.96;101141.19;4957421;29;979;-59
2022/06/19 05:33:44;;;;;;;;;;;;;;;18.06;64.39;101134.25;4957657;29;999;-58
2022/06/19 05:36:10;;;;;;;;;;;;;;;18.36;61.57;101140.81;4962275;28;1209;-57
2022/06/19 05:38:35;;;;;;;;;;;;;;;18.42;60.17;101138.88;4957547;29;1910;-58
2022/06/19 05:41:01;;;;;;;;;;;;;;;18.43;59.45;101148.81;4957371;29;1141;-58
2022/06/19 05:43:27;;;;;;;;;;;;;;;18.41;58.89;101142.75;4957756;28;1160;-58
2022/06/19 05:45:53;;;;;;;;;;;;;;;18.38;58.53;101148.81;4965561;28;1018;-59
2022/06/19 05:48:18;;;;;;;;;;;;;;;18.31;58.28;101143.56;4970244;28;2206;-58
2022/06/19 05:50:44;;;;;;;;;;;;;;;18.28;57.89;101153.19;4958538;29;1021;-60
2022/06/19 05:53:09;;;;;;;;;;;;;;;18.26;57.67;101160.13;4964498;28;955;-56
2022/06/19 05:55:35;;;;;;;;;;;;;;;18.20;57.67;101152.94;4960238;28;1418;-59
2022/06/19 05:58:00;;;;;;;;;;;;;;;19.41;56.40;101154.88;4963015;28;1898;-58
2022/06/19 06:00:26;;;;;;;;;;;;;;;17.58;58.92;101166.59;4963927;28;1157;-59
2022/06/19 06:02:51;;;;;;;;;;;;;;;17.79;62.36;101161.97;4964991;28;1000;-57
2022/06/19 06:05:17;;;;;;;;;;;;;;;19.57;57.33;101163.91;4961616;28;1160;-58
2022/06/19 06:07:42;;;;;;;;;;;;;;;17.20;59.03;101158.47;4961900;28;1372;-58
2022/06/19 06:10:08;;;;;;;;;;;;;;;18.22;61.86;101165.34;4960128;28;1103;-57
2022/06/19 06:12:34;;;;;;;;;;;;;;;19.64;56.97;101158.06;4961155;28;1227;-59
2022/06/19 06:14:59;;;;;;;;;;;;;;;19.94;52.70;101156.25;4960075;28;1363;-59
2022/06/19 06:17:25;;;;;;;;;;;;;;;18.24;59.38;101160.38;4959476;28;1914;-59
2022/06/19 06:19:50;;;;;;;;;;;;;;;16.80;60.88;101156.31;4961939;28;2086;-58
2022/06/19 06:22:16;;;;;;;;;;;;;;;18.09;64.03;101155.69;4962324;28;1209;-59
2022/06/19 06:24:41;;;;;;;;;;;;;;;19.80;58.52;101150.53;4966443;28;803;-60
2022/06/19 06:27:07;;;;;;;;;;;;;;;17.17;59.95;101155.47;4964090;28;1011;-60
2022/06/19 06:29:32;;;;;;;;;;;;;;;18.01;64.51;101161.75;4963158;28;1007;-59
2022/06/19 06:31:58;;;;;;;;;;;;;;;19.65;59.18;101159.72;4959954;29;1034;-59
2022/06/19 06:34:23;;;;;;;;;;;;;;;18.81;56.45;101158.38;4959713;29;1204;-59
2022/06/19 06:36:49;;;;;;;;;;;;;;;16.91;62.39;101160.81;4959163;28;909;-60
2022/06/19 06:39:14;;;;;;;;;;;;;;;18.12;66.31;101163.41;4960019;29;1914;-60
2022/06/19 06:41:40;;;;;;;;;;;;;;;19.61;58.60;101158.63;4966595;28;982;-59
2022/06/19 06:44:06;;;;;;;;;;;;;;;19.98;54.21;101157.31;4960435;29;1046;-60
2022/06/19 06:46:31;;;;;;;;;;;;;;;17.77;61.82;101161.41;4964883;28;972;-60
2022/06/19 06:48:59;;;;;;;;;;;;;;;16.79;61.78;101151.91;4955109;28;1952;-60
2022/06/19 06:51:26;;;;;;;;;;;;;;;17.97;66.45;101157.06;4963196;28;1064;-57
2022/06/19 06:53:51;;;;;;;;;;;;;;;19.70;61.28;101156.94;4959186;28;1454;-58
2022/06/19 06:56:17;;;;;;;;;;;;;;;17.48;60.66;101152.81;4960880;28;1103;-58
2022/06/19 06:58:42;;;;;;;;;;;;;;;17.74;65.59;101157.28;4955621;29;1898;-58
2022/06/19 07:01:09;;;;;;;;;;;;;;;19.61;61.75;101161.38;4963319;28;995;-59
2022/06/19 07:03:34;;;;;;;;;;;;;;;17.66;60.61;101149.56;4959274;29;1188;-59
2022/06/19 07:05:59;;;;;;;;;;;;;;;17.22;68.38;101163.72;4960344;28;854;-59
2022/06/19 07:08:25;;;;;;;;;;;;;;;19.14;63.76;101153.34;4959464;29;1149;-60
2022/06/19 07:10:50;;;;;;;;;;;;;;;19.79;57.00;101159.91;4959585;29;1026;-58
2022/06/19 07:13:16;;;;;;;;;;;;;;;19.49;56.72;101151.53;4959405;29;1145;-59
2022/06/19 07:15:41;;;;;;;;;;;;;;;17.43;62.94;101151.72;4963508;28;955;-58
2022/06/19 07:18:07;;;;;;;;;;;;;;;17.03;66.17;101153.19;4960406;28;1978;-59
2022/06/19 07:20:32;;;;;;;;;;;;;;;18.90;65.33;101155.06;4965284;28;2208;-58
2022/06/19 07:22:57;;;;;;;;;;;;;;;18.74;61.69;101154.25;4961182;28;1074;-58
2022/06/19 07:25:23;;;;;;;;;;;;;;;16.97;62.48;101159.75;4958831;29;1038;-59
2022/06/19 07:27:48;;;;;;;;;;;;;;;18.01;69.25;101164.50;4958852;29;991;-57
2022/06/19 07:30:18;;;;;;;;;;;;;;;19.55;62.35;101151.50;4963697;28;1019;-60
2022/06/19 07:32:43;;;;;;;;;;;;;;;19.95;55.54;101155.13;4961210;28;1058;-59
2022/06/19 07:35:09;;;;;;;;;;;;;;;17.30;60.24;101159.63;4959351;28;986;-58
2022/06/19 07:37:35;;;;;;;;;;;;;;;17.63;68.93;101166.59;4958323;29;1965;-58
2022/06/19 07:40:00;;;;;;;;;;;;;;;19.43;63.34;101151.81;4958587;29;1307;-58
2022/06/19 07:42:26;;;;;;;;;;;;;;;20.00;56.32;101144.03;4958369;28;999;-58
2022/06/19 07:44:51;;;;;;;;;;;;;;;17.41;61.84;101153.88;4958705;29;1065;-59
2022/06/19 07:50:10;;;;;;;;;;;;;;;18.34;67.48;101158.72;4958512;29;1113;-59
2022/06/19 07:52:38;;;;;;;;;;;;;;;19.44;59.17;101151.53;4958376;28;1098;-58
2022/06/19 07:55:04;;;;;;;;;;;;;;;18.60;62.71;101148.50;4964328;28;918;-60
2022/06/19 07:57:30;;;;;;;;;;;;;;;16.80;61.38;101154.41;4958532;29;1907;-60
2022/06/19 07:59:55;;;;;;;;;;;;;;;18.42;68.14;101156.22;4956014;28;1069;-60
2022/06/19 08:02:21;;;;;;;;;;;;;;;19.28;63.15;101158.25;4960017;28;1003;-60
2022/06/19 08:04:46;;;;;;;;;;;;;;;17.11;61.71;101154.63;4958512;29;1078;-61
2022/06/19 08:07:12;;;;;;;;;;;;;;;17.82;70.33;101168.84;4959069;28;977;-59
2022/06/19 08:09:37;;;;;;;;;;;;;;;19.35;63.98;101145.00;4958405;29;1003;-59
2022/06/19 08:12:03;;;;;;;;;;;;;;;19.91;56.62;101151.28;4964356;28;971;-58
2022/06/19 08:14:28;;;;;;;;;;;;;;;18.85;59.54;101157.81;4958527;29;995;-60
2022/06/19 08:16:54;;;;;;;;;;;;;;;17.42;64.27;101161.03;4958546;29;1058;-59
2022/06/19 08:19:19;;;;;;;;;;;;;;;16.69;64.35;101164.50;4961783;28;1973;-59
2022/06/19 08:21:45;;;;;;;;;;;;;;;17.90;68.49;101155.38;4961550;28;834;-60
2022/06/19 08:24:10;;;;;;;;;;;;;;;19.47;65.69;101153.75;4958297;29;1181;-60
2022/06/19 08:26:36;;;;;;;;;;;;;;;18.25;61.46;101155.69;4958255;29;1058;-60
2022/06/19 08:29:01;;;;;;;;;;;;;;;16.98;64.59;101160.59;4957915;29;1180;-60
2022/06/19 08:31:27;;;;;;;;;;;;;;;17.83;70.99;101152.06;4958000;29;1066;-60
2022/06/19 08:33:53;;;;;;;;;;;;;;;19.05;64.53;101146.75;4958444;28;1214;-59
2022/06/19 08:36:18;;;;;;;;;;;;;;;19.77;58.74;101145.56;4958667;28;976;-60
2022/06/19 08:38:44;;;;;;;;;;;;;;;18.11;63.52;101150.72;4958153;29;1902;-59
2022/06/19 08:41:14;;;;;;;;;;;;;;;16.77;64.43;101144.78;4952043;29;940;-60
2022/06/19 08:43:40;;;;;;;;;;;;;;;18.55;69.04;101143.00;4935282;29;979;-60
2022/06/19 08:46:05;;;;;;;;;;;;;;;19.66;62.20;101145.63;4962752;28;893;-60
2022/06/19 08:48:30;;;;;;;;;;;;;;;17.30;61.41;101134.91;4951759;29;1019;-60
2022/06/19 08:50:56;;;;;;;;;;;;;;;17.39;70.47;101136.00;4957315;29;1215;-59
2022/06/19 08:53:24;;;;;;;;;;;;;;;19.12;67.55;101132.66;4957609;29;1070;-59
2022/06/19 08:55:50;;;;;;;;;;;;;;;19.88;59.06;101136.16;4958186;29;1046;-60
2022/06/19 08:58:32;;;;;;;;;;;;;;;17.94;60.43;101134.50;4957101;28;1975;-60
2022/06/19 09:01:00;;;;;;;;;;;;;;;16.91;64.79;101136.94;4935951;29;1003;-60
2022/06/19 09:05:36;;;;;;;;;;;;;;;17.41;69.82;101131.88;4957733;29;1193;-59
2022/06/19 09:06:37;;;;;;;;;;;;;;;18.88;66.29;101124.22;4956625;28;1537;-59
2022/06/19 09:09:05;;;;;;;;;;;;;;;19.19;63.92;101135.13;4940608;29;1237;-60
2022/06/19 09:11:34;;;;;;;;;;;;;;;17.21;61.53;101126.34;4961882;28;894;-59
2022/06/19 09:14:03;;;;;;;;;;;;;;;17.84;70.73;101136.38;4960919;28;1102;-60
2022/06/19 09:16:36;;;;;;;;;;;;;;;19.34;65.32;101134.25;4957730;29;1035;-59
2022/06/19 09:19:02;;;;;;;;;;;;;;;19.91;57.26;101113.47;4942797;29;1989;-59
2022/06/19 09:21:43;;;;;;;;;;;;;;;18.29;57.87;101121.00;4963245;28;949;-58
2022/06/19 09:24:24;;;;;;;;;;;;;;;16.93;64.28;101132.00;4963307;28;1486;-59
2022/06/19 09:26:51;;;;;;;;;;;;;;;17.45;67.84;101129.44;4944377;29;995;-59
2022/06/19 09:29:21;;;;;;;;;;;;;;;19.13;65.69;101132.38;4943900;29;1225;-60
2022/06/19 09:31:48;;;;;;;;;;;;;;;18.57;63.94;101127.03;4950073;29;979;-59
2022/06/19 09:34:16;;;;;;;;;;;;;;;17.00;63.20;101128.16;4960999;29;1046;-59
2022/06/19 09:36:50;;;;;;;;;;;;;;;17.84;71.62;101130.88;4961195;28;826;-59
2022/06/19 09:39:18;;;;;;;;;;;;;;;19.29;64.83;101126.81;4947772;29;1914;-60
2022/06/19 09:41:46;;;;;;;;;;;;;;;19.89;56.85;101123.16;4938584;29;1513;-61
2022/06/19 09:44:14;;;;;;;;;;;;;;;18.79;60.40;101121.19;4940394;29;1122;-60
2022/06/19 09:46:50;;;;;;;;;;;;;;;17.34;65.08;101125.81;4945054;29;1233;-61
2022/06/19 09:49:21;;;;;;;;;;;;;;;16.71;66.01;101123.88;4949775;28;1268;-60
2022/06/19 09:51:57;;;;;;;;;;;;;;;18.15;69.81;101122.69;4944372;29;1241;-59
2022/06/19 09:54:26;;;;;;;;;;;;;;;19.62;65.22;101124.41;4943776;29;1003;-59
2022/06/19 09:56:58;;;;;;;;;;;;;;;17.96;61.11;101128.72;4967049;28;1003;-60
2022/06/19 09:59:33;;;;;;;;;;;;;;;16.93;66.85;101123.75;4943664;29;1975;-61
2022/06/19 10:01:59;;;;;;;;;;;;;;;18.89;68.59;101125.88;4960267;29;1133;-61
2022/06/19 10:04:34;;;;;;;;;;;;;;;19.76;60.50;101114.38;4960784;29;1062;-60
2022/06/19 10:07:00;;;;;;;;;;;;;;;18.60;58.56;101115.47;4928297;29;971;-59
2022/06/19 10:09:28;;;;;;;;;;;;;;;17.33;64.89;101124.16;4943781;29;1007;-61
2022/06/19 10:11:56;;;;;;;;;;;;;;;17.12;64.52;101120.53;4944600;28;1007;-60
2022/06/19 10:14:30;;;;;;;;;;;;;;;17.36;69.00;101122.81;4945373;29;892;-60
2022/06/19 10:17:02;;;;;;;;;;;;;;;18.47;69.26;101127.88;4960547;29;1062;-58
2022/06/19 10:19:40;;;;;;;;;;;;;;;19.79;67.16;101118.50;4960400;29;1984;-58
2022/06/19 10:22:23;;;;;;;;;;;;;;;17.90;63.01;101121.53;4959930;28;983;-60
2022/06/19 10:25:08;;;;;;;;;;;;;;;16.93;64.20;101131.16;4944207;29;1144;-59
2022/06/19 10:27:52;;;;;;;;;;;;;;;18.68;71.45;101130.56;4963701;28;995;-60
2022/06/19 10:30:19;;;;;;;;;;;;;;;19.72;62.93;101118.00;4959638;28;1070;-59
2022/06/19 10:32:53;;;;;;;;;;;;;;;19.73;56.87;101119.66;4942716;29;1117;-61
2022/06/19 10:35:37;;;;;;;;;;;;;;;17.55;62.60;101126.69;4959022;29;971;-60
2022/06/19 10:38:22;;;;;;;;;;;;;;;17.02;65.11;101129.53;4956937;29;1965;-59
2022/06/19 10:40:57;;;;;;;;;;;;;;;17.63;70.31;101130.84;4962818;28;1000;-59
2022/06/19 10:43:34;;;;;;;;;;;;;;;18.58;67.91;101131.41;4961830;28;1179;-60
2022/06/19 10:46:01;;;;;;;;;;;;;;;19.88;66.71;101124.25;4959931;29;1169;-59
2022/06/19 10:48:30;;;;;;;;;;;;;;;17.85;62.97;101116.03;4942866;29;995;-61
2022/06/19 10:51:14;;;;;;;;;;;;;;;17.02;64.79;101117.75;4942525;29;1217;-60
2022/06/19 10:53:57;;;;;;;;;;;;;;;17.30;68.47;101116.47;4957234;29;935;-60
2022/06/19 10:56:26;;;;;;;;;;;;;;;18.60;69.40;101129.22;4959800;29;1101;-60
2022/06/19 10:58:51;;;;;;;;;;;;;;;19.31;61.68;101121.84;4959328;29;1898;-60
2022/06/19 11:04:10;;;;;;;;;;;;;;;17.70;62.22;101123.16;4945311;28;1192;-59
2022/06/19 11:06:39;;;;;;;;;;;;;;;16.99;64.05;101119.09;4956028;28;998;-60
2022/06/19 11:09:07;;;;;;;;;;;;;;;18.33;72.40;101124.03;4952186;29;1011;-59
2022/06/19 11:11:33;;;;;;;;;;;;;;;19.38;66.14;101121.53;4962555;28;1043;-59
2022/06/19 11:13:58;;;;;;;;;;;;;;;19.93;57.88;101116.75;4959574;29;1153;-58
2022/06/19 11:16:24;;;;;;;;;;;;;;;18.80;61.39;101117.31;4959158;29;979;-60
2022/06/19 11:18:49;;;;;;;;;;;;;;;17.88;65.11;101118.22;4960270;28;1971;-61
2022/06/19 11:21:20;;;;;;;;;;;;;;;17.29;64.16;101120.31;4959506;28;865;-59
2022/06/19 11:23:48;;;;;;;;;;;;;;;17.41;68.16;101118.16;4942654;28;987;-59
2022/06/19 11:26:37;;;;;;;;;;;;;;;18.78;71.85;101114.03;4963836;28;998;-59
2022/06/19 11:29:14;;;;;;;;;;;;;;;19.70;64.48;101121.06;4948896;29;1435;-60
2022/06/19 11:32:00;;;;;;;;;;;;;;;20.07;56.53;101114.16;4963026;28;920;-60
2022/06/19 11:34:44;;;;;;;;;;;;;;;17.48;62.87;101117.09;4957548;29;1557;-60
2022/06/19 11:37:14;;;;;;;;;;;;;;;17.02;65.71;101118.56;4959134;29;1016;-59
2022/06/19 11:39:41;;;;;;;;;;;;;;;17.69;70.04;101126.19;4943506;29;1973;-61
2022/06/19 11:42:25;;;;;;;;;;;;;;;18.88;69.63;101113.22;4958609;28;1038;-61
2022/06/19 11:44:51;;;;;;;;;;;;;;;19.35;65.64;101114.66;4958589;28;1046;-62
2022/06/19 11:47:17;;;;;;;;;;;;;;;17.50;61.91;101101.13;4958877;29;1007;-62
2022/06/19 11:49:43;;;;;;;;;;;;;;;17.00;64.57;101106.19;4958790;29;999;-62
2022/06/19 11:52:18;;;;;;;;;;;;;;;18.45;72.30;101110.78;4958397;29;1142;-60
2022/06/19 11:54:45;;;;;;;;;;;;;;;19.38;65.43;101111.31;4958639;29;1101;-60
2022/06/19 11:57:22;;;;;;;;;;;;;;;19.88;57.54;101107.69;4960819;28;1345;-60
2022/06/19 11:59:48;;;;;;;;;;;;;;;18.83;61.56;101097.50;4960921;28;1272;-60
2022/06/19 12:02:26;;;;;;;;;;;;;;;17.71;65.21;101101.97;4946061;29;1332;-60
2022/06/19 12:04:55;;;;;;;;;;;;;;;16.90;62.17;101104.22;4959767;28;1292;-59
2022/06/19 12:07:22;;;;;;;;;;;;;;;18.34;72.32;101107.25;4959204;28;1149;-59
2022/06/19 12:09:55;;;;;;;;;;;;;;;19.54;67.75;101102.94;4940907;29;1171;-59
2022/06/19 12:12:20;;;;;;;;;;;;;;;20.07;58.91;101105.06;4956282;28;1596;-59
2022/06/19 12:14:46;;;;;;;;;;;;;;;17.88;62.64;101104.47;4944168;28;1363;-60
2022/06/19 12:17:17;;;;;;;;;;;;;;;17.21;65.69;101104.38;4958355;28;1227;-60
2022/06/19 12:19:47;;;;;;;;;;;;;;;16.98;64.99;101105.63;4957295;28;1999;-60
2022/06/19 12:22:12;;;;;;;;;;;;;;;17.61;69.60;101102.78;4944530;29;1303;-60
2022/06/19 12:24:39;;;;;;;;;;;;;;;18.81;71.63;101103.25;4942323;28;1212;-60
2022/06/19 12:27:04;;;;;;;;;;;;;;;19.76;66.68;101099.78;4943447;28;1409;-60
2022/06/19 12:29:37;;;;;;;;;;;;;;;17.61;62.93;101100.03;4957980;29;971;-60
2022/06/19 12:32:12;;;;;;;;;;;;;;;17.01;65.64;101105.09;4940952;29;956;-60
2022/06/19 12:34:39;;;;;;;;;;;;;;;17.44;70.12;101109.34;4940489;29;831;-60
2022/06/19 12:37:05;;;;;;;;;;;;;;;18.40;71.11;101103.38;4945181;29;973;-60
2022/06/19 12:39:31;;;;;;;;;;;;;;;19.65;69.45;101104.53;4958299;29;1907;-60
2022/06/19 12:42:05;;;;;;;;;;;;;;;18.28;63.81;101094.59;4957913;29;1058;-60
2022/06/19 12:44:40;;;;;;;;;;;;;;;17.16;64.82;101094.16;4958158;29;951;-60
2022/06/19 12:47:24;;;;;;;;;;;;;;;17.24;69.01;101092.81;4959593;28;1163;-59
2022/06/19 12:50:08;;;;;;;;;;;;;;;18.27;69.88;101093.78;4941046;29;1054;-60
2022/06/19 12:52:39;;;;;;;;;;;;;;;19.68;69.14;101095.69;4955292;28;1210;-59
2022/06/19 12:55:15;;;;;;;;;;;;;;;18.29;64.00;101087.97;4940584;29;980;-59
2022/06/19 12:57:40;;;;;;;;;;;;;;;17.08;62.38;101090.03;4946224;29;1906;-60
2022/06/19 13:00:09;;;;;;;;;;;;;;;18.19;72.76;101085.22;4957064;28;1125;-61